sensor_id;sensor_type;location;lat;lon;timestamp;pressure;altitude;pressure_sealevel;temperature;humidity
12594;BME280;6362;50.208;9.182;2023-04-01T00:00:06;98172.47;;;9.59;71.47
12594;BME280;6362;50.208;9.182;2023-04-01T00:02:32;98157.91;;;9.55;71.73
12594;BME280;6362;50.208;9.182;2023-04-01T00:04:57;98163.75;;;9.60;72.08
12594;BME280;6362;50.208;9.182;2023-04-01T00:07:22;98156.88;;;9.59;71.70
12594;BME280;6362;50.208;9.182;2023-04-01T00:09:48;98156.03;;;9.59;72.22
12594;BME280;6362;50.208;9.182;2023-04-01T00:12:13;98155.97;;;9.60;71.96
12594;BME280;6362;50.208;9.182;2023-04-01T00:14:39;98157.59;;;9.64;71.87
12594;BME280;6362;50.208;9.182;2023-04-01T00:17:05;98161.00;;;9.66;70.91
12594;BME280;6362;50.208;9.182;2023-04-01T00:19:31;98151.69;;;9.59;71.54
12594;BME280;6362;50.208;9.182;2023-04-01T00:21:58;98148.97;;;9.64;71.44
12594;BME280;6362;50.208;9.182;2023-04-01T00:24:23;98147.00;;;9.70;70.72
12594;BME280;6362;50.208;9.182;2023-04-01T00:26:49;98148.06;;;9.65;71.16
12594;BME280;6362;50.208;9.182;2023-04-01T00:29:14;98144.53;;;9.67;70.26
12594;BME280;6362;50.208;9.182;2023-04-01T00:31:40;98154.09;;;9.65;70.44
12594;BME280;6362;50.208;9.182;2023-04-01T00:34:05;98137.66;;;9.65;71.17
12594;BME280;6362;50.208;9.182;2023-04-01T00:36:31;98150.13;;;9.55;71.30
12594;BME280;6362;50.208;9.182;2023-04-01T00:38:57;98156.75;;;9.64;70.98
12594;BME280;6362;50.208;9.182;2023-04-01T00:41:24;98155.81;;;9.66;71.05
12594;BME280;6362;50.208;9.182;2023-04-01T00:43:51;98143.88;;;9.61;70.64
12594;BME280;6362;50.208;9.182;2023-04-01T00:46:18;98141.31;;;9.59;70.68
12594;BME280;6362;50.208;9.182;2023-04-01T00:48:48;98143.06;;;9.59;71.05
12594;BME280;6362;50.208;9.182;2023-04-01T00:51:18;98151.84;;;9.55;70.96
12594;BME280;6362;50.208;9.182;2023-04-01T00:53:48;98145.91;;;9.51;71.13
12594;BME280;6362;50.208;9.182;2023-04-01T00:56:17;98148.31;;;9.57;71.37
12594;BME280;6362;50.208;9.182;2023-04-01T00:58:48;98139.81;;;9.52;71.54
12594;BME280;6362;50.208;9.182;2023-04-01T01:01:16;98135.41;;;9.56;70.42
12594;BME280;6362;50.208;9.182;2023-04-01T01:03:42;98141.47;;;9.55;70.50
12594;BME280;6362;50.208;9.182;2023-04-01T01:11:35;98148.31;;;9.57;70.23
12594;BME280;6362;50.208;9.182;2023-04-01T01:16:55;98147.59;;;9.52;69.98
12594;BME280;6362;50.208;9.182;2023-04-01T01:25:16;98136.88;;;9.63;69.01
12594;BME280;6362;50.208;9.182;2023-04-01T01:27:50;98140.25;;;9.65;69.10
12594;BME280;6362;50.208;9.182;2023-04-01T01:30:38;98135.22;;;9.60;69.66
12594;BME280;6362;50.208;9.182;2023-04-01T01:36:12;98136.97;;;9.60;69.47
12594;BME280;6362;50.208;9.182;2023-04-01T01:38:39;98124.19;;;9.53;69.61
12594;BME280;6362;50.208;9.182;2023-04-01T01:41:07;98123.25;;;9.56;70.02
12594;BME280;6362;50.208;9.182;2023-04-01T01:43:37;98134.69;;;9.50;70.63
12594;BME280;6362;50.208;9.182;2023-04-01T01:46:11;98123.56;;;9.47;70.42
12594;BME280;6362;50.208;9.182;2023-04-01T01:48:40;98135.75;;;9.45;70.28
12594;BME280;6362;50.208;9.182;2023-04-01T01:51:07;98121.91;;;9.44;71.40
12594;BME280;6362;50.208;9.182;2023-04-01T01:53:32;98119.66;;;9.34;71.29
12594;BME280;6362;50.208;9.182;2023-04-01T01:55:58;98124.00;;;9.33;71.32
12594;BME280;6362;50.208;9.182;2023-04-01T02:01:12;98139.91;;;9.22;72.99
12594;BME280;6362;50.208;9.182;2023-04-01T02:03:39;98128.69;;;9.20;73.05
12594;BME280;6362;50.208;9.182;2023-04-01T02:06:10;98131.22;;;9.23;72.29
12594;BME280;6362;50.208;9.182;2023-04-01T02:08:44;98134.00;;;9.17;72.16
12594;BME280;6362;50.208;9.182;2023-04-01T02:11:13;98130.44;;;9.20;71.79
12594;BME280;6362;50.208;9.182;2023-04-01T02:13:48;98129.41;;;9.25;71.94
12594;BME280;6362;50.208;9.182;2023-04-01T02:16:20;98125.19;;;9.23;71.26
12594;BME280;6362;50.208;9.182;2023-04-01T02:18:50;98126.81;;;9.25;71.37
12594;BME280;6362;50.208;9.182;2023-04-01T02:21:20;98133.81;;;9.23;71.57
12594;BME280;6362;50.208;9.182;2023-04-01T02:23:47;98129.41;;;9.25;70.82
12594;BME280;6362;50.208;9.182;2023-04-01T02:26:14;98113.00;;;9.25;71.18
12594;BME280;6362;50.208;9.182;2023-04-01T02:28:41;98119.88;;;9.26;71.12
12594;BME280;6362;50.208;9.182;2023-04-01T02:31:09;98122.47;;;9.26;70.92
12594;BME280;6362;50.208;9.182;2023-04-01T02:33:37;98125.72;;;9.33;70.37
12594;BME280;6362;50.208;9.182;2023-04-01T02:36:04;98123.00;;;9.37;70.07
12594;BME280;6362;50.208;9.182;2023-04-01T02:38:30;98127.25;;;9.40;69.66
12594;BME280;6362;50.208;9.182;2023-04-01T02:40:59;98132.53;;;9.37;69.37
12594;BME280;6362;50.208;9.182;2023-04-01T02:43:25;98125.38;;;9.43;69.51
12594;BME280;6362;50.208;9.182;2023-04-01T02:45:50;98121.22;;;9.39;69.32
12594;BME280;6362;50.208;9.182;2023-04-01T02:48:16;98123.00;;;9.37;70.01
12594;BME280;6362;50.208;9.182;2023-04-01T02:50:41;98128.03;;;9.42;69.74
12594;BME280;6362;50.208;9.182;2023-04-01T02:53:07;98132.47;;;9.38;69.94
12594;BME280;6362;50.208;9.182;2023-04-01T02:55:33;98126.34;;;9.41;69.93
12594;BME280;6362;50.208;9.182;2023-04-01T02:57:59;98131.63;;;9.38;70.23
12594;BME280;6362;50.208;9.182;2023-04-01T03:00:25;98132.56;;;9.35;70.05
12594;BME280;6362;50.208;9.182;2023-04-01T03:02:52;98135.94;;;9.39;69.88
12594;BME280;6362;50.208;9.182;2023-04-01T03:05:17;98127.34;;;9.37;69.86
12594;BME280;6362;50.208;9.182;2023-04-01T03:07:43;98128.22;;;9.36;70.58
12594;BME280;6362;50.208;9.182;2023-04-01T03:10:09;98121.41;;;9.33;70.37
12594;BME280;6362;50.208;9.182;2023-04-01T03:12:35;98116.91;;;9.38;69.28
12594;BME280;6362;50.208;9.182;2023-04-01T03:15:00;98135.94;;;9.39;69.93
12594;BME280;6362;50.208;9.182;2023-04-01T03:17:26;98132.53;;;9.37;70.23
12594;BME280;6362;50.208;9.182;2023-04-01T03:19:51;98127.53;;;9.31;70.51
12594;BME280;6362;50.208;9.182;2023-04-01T03:22:16;98127.38;;;9.35;70.11
12594;BME280;6362;50.208;9.182;2023-04-01T03:24:44;98134.41;;;9.32;70.39
12594;BME280;6362;50.208;9.182;2023-04-01T03:27:09;98127.47;;;9.32;70.37
12594;BME280;6362;50.208;9.182;2023-04-01T03:29:35;98124.16;;;9.29;70.55
12594;BME280;6362;50.208;9.182;2023-04-01T03:32:00;98131.88;;;9.30;70.62
12594;BME280;6362;50.208;9.182;2023-04-01T03:34:25;98132.91;;;9.24;70.88
12594;BME280;6362;50.208;9.182;2023-04-01T03:36:51;98120.66;;;9.30;70.41
12594;BME280;6362;50.208;9.182;2023-04-01T03:39:17;98127.63;;;9.28;70.85
12594;BME280;6362;50.208;9.182;2023-04-01T03:41:44;98129.47;;;9.24;71.33
12594;BME280;6362;50.208;9.182;2023-04-01T03:44:11;98120.72;;;9.26;70.79
12594;BME280;6362;50.208;9.182;2023-04-01T03:46:37;98128.56;;;9.25;70.89
12594;BME280;6362;50.208;9.182;2023-04-01T03:49:02;98124.34;;;9.22;71.23
12594;BME280;6362;50.208;9.182;2023-04-01T03:51:36;98142.50;;;9.22;71.21
12594;BME280;6362;50.208;9.182;2023-04-01T03:54:02;98128.69;;;9.20;71.64
12594;BME280;6362;50.208;9.182;2023-04-01T03:56:27;98139.13;;;9.19;71.56
12594;BME280;6362;50.208;9.182;2023-04-01T03:58:53;98127.13;;;9.16;72.11
12594;BME280;6362;50.208;9.182;2023-04-01T04:01:20;98128.19;;;9.09;72.96
12594;BME280;6362;50.208;9.182;2023-04-01T04:03:46;98129.94;;;9.09;73.36
12594;BME280;6362;50.208;9.182;2023-04-01T04:06:14;98130.13;;;9.03;72.87
12594;BME280;6362;50.208;9.182;2023-04-01T04:08:39;98130.00;;;9.07;73.10
12594;BME280;6362;50.208;9.182;2023-04-01T04:11:05;98122.41;;;9.01;72.98
12594;BME280;6362;50.208;9.182;2023-04-01T04:13:31;98126.88;;;8.96;73.20
12594;BME280;6362;50.208;9.182;2023-04-01T04:15:57;98126.69;;;9.02;72.60
12594;BME280;6362;50.208;9.182;2023-04-01T04:18:23;98127.59;;;9.01;73.13
12594;BME280;6362;50.208;9.182;2023-04-01T04:20:48;98119.94;;;8.96;72.79
12594;BME280;6362;50.208;9.182;2023-04-01T04:23:16;98124.16;;;8.99;72.56
12594;BME280;6362;50.208;9.182;2023-04-01T04:25:41;98130.19;;;9.01;72.80
12594;BME280;6362;50.208;9.182;2023-04-01T04:28:07;98122.47;;;8.99;73.23
12594;BME280;6362;50.208;9.182;2023-04-01T04:30:32;98132.72;;;9.03;73.04
12594;BME280;6362;50.208;9.182;2023-04-01T04:32:57;98125.91;;;9.00;73.03
12594;BME280;6362;50.208;9.182;2023-04-01T04:35:23;98112.81;;;9.03;72.38
12594;BME280;6362;50.208;9.182;2023-04-01T04:37:48;98113.00;;;8.97;72.83
12594;BME280;6362;50.208;9.182;2023-04-01T04:40:14;98106.03;;;8.99;73.16
12594;BME280;6362;50.208;9.182;2023-04-01T04:42:39;98114.63;;;9.01;72.76
12594;BME280;6362;50.208;9.182;2023-04-01T04:45:05;98124.09;;;9.02;72.77
12594;BME280;6362;50.208;9.182;2023-04-01T04:47:31;98118.00;;;9.03;73.16
12594;BME280;6362;50.208;9.182;2023-04-01T04:49:56;98123.25;;;9.02;73.20
12594;BME280;6362;50.208;9.182;2023-04-01T04:52:21;98119.94;;;8.96;72.75
12594;BME280;6362;50.208;9.182;2023-04-01T04:54:47;98123.19;;;9.03;72.90
12594;BME280;6362;50.208;9.182;2023-04-01T04:57:12;98118.81;;;9.05;72.66
12594;BME280;6362;50.208;9.182;2023-04-01T04:59:38;98117.09;;;9.04;72.13
12594;BME280;6362;50.208;9.182;2023-04-01T05:02:03;98125.06;;;8.99;72.62
12594;BME280;6362;50.208;9.182;2023-04-01T05:04:28;98121.31;;;9.08;72.34
12594;BME280;6362;50.208;9.182;2023-04-01T05:06:54;98120.53;;;9.06;72.25
12594;BME280;6362;50.208;9.182;2023-04-01T05:09:20;98122.25;;;9.06;72.03
12594;BME280;6362;50.208;9.182;2023-04-01T05:11:45;98132.59;;;9.07;72.13
12594;BME280;6362;50.208;9.182;2023-04-01T05:14:15;98112.56;;;9.12;72.05
12594;BME280;6362;50.208;9.182;2023-04-01T05:16:41;98119.47;;;9.12;72.21
12594;BME280;6362;50.208;9.182;2023-04-01T05:19:06;98130.19;;;9.01;71.98
12594;BME280;6362;50.208;9.182;2023-04-01T05:21:32;98121.25;;;9.10;71.91
12594;BME280;6362;50.208;9.182;2023-04-01T05:23:57;98119.63;;;9.07;72.21
12594;BME280;6362;50.208;9.182;2023-04-01T05:26:22;98111.78;;;9.09;72.51
12594;BME280;6362;50.208;9.182;2023-04-01T05:28:48;98120.41;;;9.09;71.71
12594;BME280;6362;50.208;9.182;2023-04-01T05:31:13;98115.13;;;9.12;71.72
12594;BME280;6362;50.208;9.182;2023-04-01T05:33:39;98121.22;;;9.11;72.12
12594;BME280;6362;50.208;9.182;2023-04-01T05:36:13;98116.03;;;9.11;72.25
12594;BME280;6362;50.208;9.182;2023-04-01T05:38:39;98134.09;;;9.14;72.08
12594;BME280;6362;50.208;9.182;2023-04-01T05:41:05;98124.66;;;9.12;72.19
12594;BME280;6362;50.208;9.182;2023-04-01T05:43:30;98104.91;;;9.08;72.31
12594;BME280;6362;50.208;9.182;2023-04-01T05:45:56;98117.09;;;9.06;72.77
12594;BME280;6362;50.208;9.182;2023-04-01T05:48:22;98120.31;;;9.12;73.02
12594;BME280;6362;50.208;9.182;2023-04-01T05:50:47;98114.81;;;9.23;72.89
12594;BME280;6362;50.208;9.182;2023-04-01T05:53:13;98109.63;;;9.23;72.18
12594;BME280;6362;50.208;9.182;2023-04-01T05:55:39;98114.94;;;9.18;72.19
12594;BME280;6362;50.208;9.182;2023-04-01T05:58:04;98117.47;;;9.20;72.60
12594;BME280;6362;50.208;9.182;2023-04-01T06:00:30;98108.59;;;9.27;72.43
12594;BME280;6362;50.208;9.182;2023-04-01T06:02:58;98116.25;;;9.32;72.70
12594;BME280;6362;50.208;9.182;2023-04-01T06:05:26;98114.81;;;9.23;72.37
12594;BME280;6362;50.208;9.182;2023-04-01T06:07:58;98115.78;;;9.19;72.40
12594;BME280;6362;50.208;9.182;2023-04-01T06:10:36;98130.00;;;9.07;73.84
12594;BME280;6362;50.208;9.182;2023-04-01T06:27:02;98125.31;;;8.90;75.23
12594;BME280;6362;50.208;9.182;2023-04-01T06:29:52;98122.66;;;8.92;75.21
12594;BME280;6362;50.208;9.182;2023-04-01T06:35:42;98138.34;;;8.89;74.61
12594;BME280;6362;50.208;9.182;2023-04-01T06:38:16;98127.97;;;8.89;75.08
12594;BME280;6362;50.208;9.182;2023-04-01T06:52:23;98132.25;;;8.90;75.85
12594;BME280;6362;50.208;9.182;2023-04-01T06:57:44;98124.72;;;8.81;76.60
12594;BME280;6362;50.208;9.182;2023-04-01T07:00:24;98129.72;;;8.88;75.87
12594;BME280;6362;50.208;9.182;2023-04-01T07:05:49;98125.50;;;8.84;76.17
12594;BME280;6362;50.208;9.182;2023-04-01T07:08:22;98125.53;;;8.83;76.10
12594;BME280;6362;50.208;9.182;2023-04-01T07:11:06;98119.53;;;8.81;75.86
12594;BME280;6362;50.208;9.182;2023-04-01T07:13:39;98123.97;;;8.77;76.34
12594;BME280;6362;50.208;9.182;2023-04-01T07:18:42;98111.09;;;8.74;76.20
12594;BME280;6362;50.208;9.182;2023-04-01T07:21:23;98118.75;;;8.79;76.41
12594;BME280;6362;50.208;9.182;2023-04-01T07:23:51;98108.56;;;8.72;76.08
12594;BME280;6362;50.208;9.182;2023-04-01T07:26:22;98114.50;;;8.76;76.41
12594;BME280;6362;50.208;9.182;2023-04-01T07:28:50;98120.44;;;8.80;75.99
12594;BME280;6362;50.208;9.182;2023-04-01T07:31:39;98118.78;;;8.77;75.56
12594;BME280;6362;50.208;9.182;2023-04-01T07:34:26;98118.63;;;8.83;76.33
12594;BME280;6362;50.208;9.182;2023-04-01T07:39:48;98119.16;;;8.94;75.57
12594;BME280;6362;50.208;9.182;2023-04-01T07:48:00;98130.56;;;8.89;76.48
12594;BME280;6362;50.208;9.182;2023-04-01T07:56:39;98141.06;;;8.83;77.10
12594;BME280;6362;50.208;9.182;2023-04-01T08:02:06;98142.75;;;8.85;77.17
12594;BME280;6362;50.208;9.182;2023-04-01T08:05:10;98140.22;;;8.84;77.63
12594;BME280;6362;50.208;9.182;2023-04-01T08:10:32;98142.69;;;8.87;77.71
12594;BME280;6362;50.208;9.182;2023-04-01T08:19:04;98162.38;;;8.94;77.05
12594;BME280;6362;50.208;9.182;2023-04-01T08:21:42;98164.09;;;8.93;78.09
12594;BME280;6362;50.208;9.182;2023-04-01T08:24:45;98163.13;;;8.97;77.45
12594;BME280;6362;50.208;9.182;2023-04-01T08:27:37;98166.34;;;9.06;77.10
12594;BME280;6362;50.208;9.182;2023-04-01T08:30:18;98160.34;;;9.04;77.04
12594;BME280;6362;50.208;9.182;2023-04-01T08:33:11;98160.25;;;9.07;77.13
12594;BME280;6362;50.208;9.182;2023-04-01T08:36:08;98168.25;;;8.99;77.95
12594;BME280;6362;50.208;9.182;2023-04-01T08:38:44;98171.53;;;9.06;77.20
12594;BME280;6362;50.208;9.182;2023-04-01T08:49:32;98169.66;;;9.11;77.72
12594;BME280;6362;50.208;9.182;2023-04-01T08:54:48;98177.44;;;9.11;78.00
12594;BME280;6362;50.208;9.182;2023-04-01T09:02:59;98176.56;;;9.10;78.64
12594;BME280;6362;50.208;9.182;2023-04-01T09:12:02;98180.69;;;9.17;79.68
12594;BME280;6362;50.208;9.182;2023-04-01T09:26:28;98193.91;;;9.08;80.75
12594;BME280;6362;50.208;9.182;2023-04-01T09:31:52;98195.59;;;9.09;81.36
12594;BME280;6362;50.208;9.182;2023-04-01T09:39:51;98191.19;;;9.13;81.50
12594;BME280;6362;50.208;9.182;2023-04-01T09:45:21;98197.31;;;9.10;81.51
12594;BME280;6362;50.208;9.182;2023-04-01T09:48:24;98205.91;;;9.12;82.23
12594;BME280;6362;50.208;9.182;2023-04-01T09:53:55;98199.91;;;9.10;82.25
12594;BME280;6362;50.208;9.182;2023-04-01T09:56:32;98196.63;;;9.05;83.23
12594;BME280;6362;50.208;9.182;2023-04-01T10:01:54;98199.03;;;9.11;82.96
12594;BME280;6362;50.208;9.182;2023-04-01T10:24:12;98208.72;;;9.34;83.48
12594;BME280;6362;50.208;9.182;2023-04-01T10:29:38;98209.88;;;9.52;83.76
12594;BME280;6362;50.208;9.182;2023-04-01T10:32:49;98211.50;;;9.56;82.93
12594;BME280;6362;50.208;9.182;2023-04-01T10:35:28;98206.19;;;9.59;82.27
12594;BME280;6362;50.208;9.182;2023-04-01T10:41:11;98212.34;;;9.57;82.78
12594;BME280;6362;50.208;9.182;2023-04-01T10:55:19;98198.06;;;9.70;82.81
12594;BME280;6362;50.208;9.182;2023-04-01T11:23:02;98206.34;;;9.55;84.82
12594;BME280;6362;50.208;9.182;2023-04-01T11:28:24;98201.19;;;9.53;85.30
12594;BME280;6362;50.208;9.182;2023-04-01T11:39:24;98214.47;;;9.72;84.19
12594;BME280;6362;50.208;9.182;2023-04-01T11:42:09;98219.47;;;9.78;84.39
12594;BME280;6362;50.208;9.182;2023-04-01T11:44:51;98219.53;;;9.75;84.24
12594;BME280;6362;50.208;9.182;2023-04-01T11:50:15;98223.63;;;9.82;83.81
12594;BME280;6362;50.208;9.182;2023-04-01T11:56:29;98213.16;;;9.85;84.84
12594;BME280;6362;50.208;9.182;2023-04-01T12:04:36;98232.97;;;9.88;84.19
12594;BME280;6362;50.208;9.182;2023-04-01T12:10:20;98240.41;;;10.00;84.06
12594;BME280;6362;50.208;9.182;2023-04-01T12:21:23;98237.59;;;10.06;84.09
12594;BME280;6362;50.208;9.182;2023-04-01T12:41:32;98231.59;;;10.04;83.76
12594;BME280;6362;50.208;9.182;2023-04-01T12:49:55;98241.72;;;9.85;85.25
12594;BME280;6362;50.208;9.182;2023-04-01T13:09:16;98262.34;;;9.90;85.34
12594;BME280;6362;50.208;9.182;2023-04-01T13:15:01;98257.56;;;9.77;85.45
12594;BME280;6362;50.208;9.182;2023-04-01T13:31:00;98282.88;;;9.69;87.81
12594;BME280;6362;50.208;9.182;2023-04-01T13:44:54;98270.28;;;9.85;85.13
12594;BME280;6362;50.208;9.182;2023-04-01T13:47:34;98277.41;;;9.78;85.82
12594;BME280;6362;50.208;9.182;2023-04-01T13:52:50;98269.25;;;9.91;85.09
12594;BME280;6362;50.208;9.182;2023-04-01T13:55:30;98275.03;;;9.99;85.19
12594;BME280;6362;50.208;9.182;2023-04-01T14:00:58;98299.28;;;9.99;86.24
12594;BME280;6362;50.208;9.182;2023-04-01T14:03:45;98295.59;;;10.07;86.41
12594;BME280;6362;50.208;9.182;2023-04-01T14:06:38;98297.72;;;10.20;85.26
12594;BME280;6362;50.208;9.182;2023-04-01T14:09:36;98297.66;;;10.23;84.99
12594;BME280;6362;50.208;9.182;2023-04-01T14:21:07;98297.22;;;10.37;84.98
12594;BME280;6362;50.208;9.182;2023-04-01T14:47:51;98295.94;;;10.22;84.10
12594;BME280;6362;50.208;9.182;2023-04-01T14:50:24;98301.81;;;10.29;84.79
12594;BME280;6362;50.208;9.182;2023-04-01T14:53:12;98309.69;;;10.27;84.62
12594;BME280;6362;50.208;9.182;2023-04-01T15:03:48;98316.31;;;10.08;84.31
12594;BME280;6362;50.208;9.182;2023-04-01T15:14:57;98313.44;;;10.16;83.06
12594;BME280;6362;50.208;9.182;2023-04-01T15:28:40;98326.31;;;10.20;83.99
12594;BME280;6362;50.208;9.182;2023-04-01T15:31:53;98326.06;;;10.29;82.95
12594;BME280;6362;50.208;9.182;2023-04-01T15:34:56;98327.09;;;10.24;83.54
12594;BME280;6362;50.208;9.182;2023-04-01T15:37:44;98344.31;;;10.26;83.97
12594;BME280;6362;50.208;9.182;2023-04-01T15:40:37;98340.97;;;10.23;83.66
12594;BME280;6362;50.208;9.182;2023-04-01T15:43:30;98356.69;;;10.18;83.66
12594;BME280;6362;50.208;9.182;2023-04-01T15:49:42;98356.88;;;10.12;85.13
12594;BME280;6362;50.208;9.182;2023-04-01T15:55:26;98360.47;;;10.08;84.75
12594;BME280;6362;50.208;9.182;2023-04-01T16:03:13;98358.44;;;9.90;85.62
12594;BME280;6362;50.208;9.182;2023-04-01T16:08:49;98353.25;;;9.88;85.66
12594;BME280;6362;50.208;9.182;2023-04-01T16:14:17;98382.84;;;9.83;86.30
12594;BME280;6362;50.208;9.182;2023-04-01T16:17:05;98381.28;;;9.77;86.08
12594;BME280;6362;50.208;9.182;2023-04-01T16:19:51;98391.72;;;9.75;86.00
12594;BME280;6362;50.208;9.182;2023-04-01T16:22:40;98396.97;;;9.74;86.12
12594;BME280;6362;50.208;9.182;2023-04-01T16:25:36;98392.88;;;9.65;86.46
12594;BME280;6362;50.208;9.182;2023-04-01T16:31:12;98394.31;;;9.75;85.96
12594;BME280;6362;50.208;9.182;2023-04-01T16:34:03;98401.94;;;9.82;85.66
12594;BME280;6362;50.208;9.182;2023-04-01T16:39:36;98396.84;;;9.78;85.95
12594;BME280;6362;50.208;9.182;2023-04-01T16:45:34;98394.81;;;9.88;85.36
12594;BME280;6362;50.208;9.182;2023-04-01T16:48:12;98407.47;;;9.99;85.12
12594;BME280;6362;50.208;9.182;2023-04-01T16:50:59;98414.44;;;9.98;85.15
12594;BME280;6362;50.208;9.182;2023-04-01T16:53:43;98417.97;;;9.96;85.48
12594;BME280;6362;50.208;9.182;2023-04-01T16:59:37;98431.09;;;9.91;85.61
12594;BME280;6362;50.208;9.182;2023-04-01T17:04:55;98438.03;;;9.91;85.53
12594;BME280;6362;50.208;9.182;2023-04-01T17:18:19;98477.50;;;9.72;87.01
12594;BME280;6362;50.208;9.182;2023-04-01T17:21:46;98486.22;;;9.70;86.44
12594;BME280;6362;50.208;9.182;2023-04-01T17:26:47;98491.41;;;9.37;86.03
12594;BME280;6362;50.208;9.182;2023-04-01T17:35:08;98520.16;;;8.57;82.10
12594;BME280;6362;50.208;9.182;2023-04-01T17:38:02;98529.91;;;8.45;81.54
12594;BME280;6362;50.208;9.182;2023-04-01T17:40:44;98540.66;;;8.24;81.89
12594;BME280;6362;50.208;9.182;2023-04-01T17:48:51;98560.16;;;7.99;82.88
12594;BME280;6362;50.208;9.182;2023-04-01T18:04:15;98578.91;;;7.63;86.41
12594;BME280;6362;50.208;9.182;2023-04-01T18:06:49;98577.25;;;7.61;87.21
12594;BME280;6362;50.208;9.182;2023-04-01T18:15:13;98584.22;;;7.57;88.13
12594;BME280;6362;50.208;9.182;2023-04-01T18:21:07;98596.38;;;7.52;88.84
12594;BME280;6362;50.208;9.182;2023-04-01T18:23:51;98590.22;;;7.58;89.29
12594;BME280;6362;50.208;9.182;2023-04-01T18:26:23;98596.28;;;7.57;89.48
12594;BME280;6362;50.208;9.182;2023-04-01T18:31:51;98612.41;;;7.73;88.09
12594;BME280;6362;50.208;9.182;2023-04-01T18:34:26;98615.09;;;7.66;88.27
12594;BME280;6362;50.208;9.182;2023-04-01T18:37:15;98633.13;;;7.73;87.67
12594;BME280;6362;50.208;9.182;2023-04-01T18:39:50;98630.50;;;7.74;87.42
12594;BME280;6362;50.208;9.182;2023-04-01T18:45:43;98637.63;;;7.61;88.83
12594;BME280;6362;50.208;9.182;2023-04-01T18:48:37;98636.88;;;7.53;88.90
12594;BME280;6362;50.208;9.182;2023-04-01T18:51:35;98641.38;;;7.40;89.38
12594;BME280;6362;50.208;9.182;2023-04-01T18:57:01;98641.34;;;7.42;89.18
12594;BME280;6362;50.208;9.182;2023-04-01T18:59:34;98636.28;;;7.36;89.18
12594;BME280;6362;50.208;9.182;2023-04-01T19:05:12;98632.81;;;7.37;89.55
12594;BME280;6362;50.208;9.182;2023-04-01T19:07:41;98647.53;;;7.33;89.64
12594;BME280;6362;50.208;9.182;2023-04-01T19:27:14;98662.91;;;7.44;91.00
12594;BME280;6362;50.208;9.182;2023-04-01T19:29:53;98661.09;;;7.48;90.99
12594;BME280;6362;50.208;9.182;2023-04-01T19:35:17;98667.09;;;7.51;91.28
12594;BME280;6362;50.208;9.182;2023-04-01T19:37:56;98677.38;;;7.54;91.34
12594;BME280;6362;50.208;9.182;2023-04-01T19:57:14;98702.03;;;7.78;92.21
12594;BME280;6362;50.208;9.182;2023-04-01T20:04:53;98707.59;;;8.06;92.49
12594;BME280;6362;50.208;9.182;2023-04-01T20:07:26;98710.13;;;8.11;92.49
12594;BME280;6362;50.208;9.182;2023-04-01T20:15:39;98728.09;;;8.18;92.61
12594;BME280;6362;50.208;9.182;2023-04-01T20:23:45;98740.06;;;8.26;92.60
12594;BME280;6362;50.208;9.182;2023-04-01T20:26:21;98735.56;;;8.38;92.09
12594;BME280;6362;50.208;9.182;2023-04-01T20:31:36;98744.84;;;8.50;90.61
12594;BME280;6362;50.208;9.182;2023-04-01T20:42:49;98756.16;;;8.46;90.68
12594;BME280;6362;50.208;9.182;2023-04-01T20:58:40;98771.09;;;8.27;91.94
12594;BME280;6362;50.208;9.182;2023-04-01T21:10:11;98780.66;;;8.25;92.47
12594;BME280;6362;50.208;9.182;2023-04-01T21:17:42;98791.88;;;8.24;92.62
12594;BME280;6362;50.208;9.182;2023-04-01T21:20:54;98796.91;;;8.36;92.17
12594;BME280;6362;50.208;9.182;2023-04-01T21:29:02;98810.84;;;8.26;91.88
12594;BME280;6362;50.208;9.182;2023-04-01T21:44:36;98837.69;;;8.20;92.62
12594;BME280;6362;50.208;9.182;2023-04-01T22:09:25;98857.63;;;8.15;92.73
12594;BME280;6362;50.208;9.182;2023-04-01T22:12:00;98854.19;;;8.15;92.90
12594;BME280;6362;50.208;9.182;2023-04-01T22:14:44;98857.66;;;8.14;92.76
12594;BME280;6362;50.208;9.182;2023-04-01T22:25:36;98881.03;;;8.11;92.76
12594;BME280;6362;50.208;9.182;2023-04-01T22:28:09;98875.84;;;8.11;92.67
12594;BME280;6362;50.208;9.182;2023-04-01T22:30:50;98874.97;;;8.10;92.55
12594;BME280;6362;50.208;9.182;2023-04-01T22:39:21;98882.72;;;8.12;92.54
12594;BME280;6362;50.208;9.182;2023-04-01T22:49:53;98887.84;;;8.16;92.85
12594;BME280;6362;50.208;9.182;2023-04-01T22:55:00;98894.78;;;8.13;92.75
12594;BME280;6362;50.208;9.182;2023-04-01T22:57:50;98899.13;;;8.12;92.84
12594;BME280;6362;50.208;9.182;2023-04-01T23:00:22;98905.19;;;8.11;92.63
12594;BME280;6362;50.208;9.182;2023-04-01T23:05:58;98913.81;;;8.12;92.62
12594;BME280;6362;50.208;9.182;2023-04-01T23:11:12;98914.66;;;8.12;92.77
12594;BME280;6362;50.208;9.182;2023-04-01T23:13:47;98919.88;;;8.11;92.61
12594;BME280;6362;50.208;9.182;2023-04-01T23:16:22;98924.16;;;8.10;92.33
12594;BME280;6362;50.208;9.182;2023-04-01T23:18:57;98918.16;;;8.08;92.53
12594;BME280;6362;50.208;9.182;2023-04-01T23:21:41;98924.16;;;8.10;92.50
12594;BME280;6362;50.208;9.182;2023-04-01T23:24:30;98928.50;;;8.11;92.85
12594;BME280;6362;50.208;9.182;2023-04-01T23:27:05;98938.00;;;8.11;92.69
12594;BME280;6362;50.208;9.182;2023-04-01T23:29:36;98937.13;;;8.12;92.53
12594;BME280;6362;50.208;9.182;2023-04-01T23:32:05;98942.31;;;8.09;92.32
12594;BME280;6362;50.208;9.182;2023-04-01T23:34:38;98938.84;;;8.10;92.27
12594;BME280;6362;50.208;9.182;2023-04-01T23:37:08;98943.16;;;8.09;92.54
12594;BME280;6362;50.208;9.182;2023-04-01T23:39:41;98950.94;;;8.11;92.63
12594;BME280;6362;50.208;9.182;2023-04-01T23:42:31;98954.38;;;8.11;92.45
12594;BME280;6362;50.208;9.182;2023-04-01T23:44:58;98954.34;;;8.13;92.22
12594;BME280;6362;50.208;9.182;2023-04-01T23:47:30;98961.28;;;8.12;92.20
12594;BME280;6362;50.208;9.182;2023-04-01T23:49:58;98951.78;;;8.11;92.20
12594;BME280;6362;50.208;9.182;2023-04-01T23:52:28;98957.84;;;8.12;92.35
12594;BME280;6362;50.208;9.182;2023-04-01T23:55:03;98965.59;;;8.12;92.18
12594;BME280;6362;50.208;9.182;2023-04-01T23:57:34;98963.88;;;8.12;92.15
